ADDS METAR Data INFO
IDs: Format: Raw Decoded Include TAF

Data at: 0636 UTC 15 Dec 2017

METAR for:KLEE (Leesburg Muni, FL, US)
Text:KLEE 150553Z AUTO 19004KT 10SM OVC070 17/14 A3007 RMK AO2 SLP180 T01670144 10178 20161 58002
Temperature: 16.7°C ( 62°F)
Dewpoint: 14.4°C ( 58°F) [RH = 86%]
Pressure (altimeter):30.07 inches Hg (1018.4 mb) [Sea level pressure: 1018.0 mb]
Winds:from the S (190 degrees) at 5 MPH (4 knots; 2.1 m/s)
Visibility:10 or more sm (16+ km)
Ceiling:7000 feet AGL
Clouds: overcast cloud deck at 7000 feet AGL
QC Flag:automated observation with no human augmentation